Brilliance Of The Seas — C6SJ5 — position and weather

sailwx.info

Track history (hours):
 
Tides and Currents Weather Stations Pressure Air Temp Water Temp Dewpoint Dewpoint Depression Visibility Wind Speed Wind Dir Waves Ship Positions

Brilliance Of The Seas

Operator: Royal Caribbean Cruises Ltd

Last reported at 2014-Jul-26 22:33 UTC. Time now 2014-Jul-31 03:19 UTC.
Position N 52°57' E 002°40'.

Type: Ship. MMSI: 311361000.

Date/timePositionNaut miles runAvg speedWind from/ knotsBaromVisibWave heightAir tempDewpointWater temp
2014-Jul-26 22:33N 52°57' E 002°40'4317.2
2014-Jul-26 20:03N 52°18' E 002°08'817.1
2014-Jul-26 19:33N 52°11' E 002°02'1716.9
2014-Jul-26 18:34N 51°56' E 001°49'10 9.6
2014-Jul-26 17:33N 51°55' E 001°34'10 9.7
2014-Jul-26 16:34N 51°57' E 001°18'2 1.7
2014-Jul-26 15:31N 51°57' E 001°16'0 0.0
2014-Jul-26 14:31N 51°57' E 001°16'0 0.0
2014-Jul-26 13:31N 51°57' E 001°16'0 0.0
2014-Jul-26 12:31N 51°57' E 001°16'0 0.0
2014-Jul-26 11:31N 51°57' E 001°16'0 0.0
2014-Jul-26 10:31N 51°57' E 001°16'0 0.0
2014-Jul-26 09:28N 51°57' E 001°16'0 0.0
2014-Jul-26 08:28N 51°57' E 001°16'0 0.0
2014-Jul-26 07:31N 51°57' E 001°16'0 0.0
2014-Jul-26 06:31N 51°57' E 001°16'0 0.0
2014-Jul-26 05:31N 51°57' E 001°16'0 0.0
2014-Jul-26 04:31N 51°57' E 001°16'0 0.0
2014-Jul-26 03:34N 51°57' E 001°16'4 3.6
2014-Jul-26 02:33N 51°56' E 001°21'1212.3
2014-Jul-26 01:34N 51°52' E 001°40'1515.1
2014-Jul-26 00:34N 52°04' E 001°55'8616.8
2014-Jul-25 19:25N 53°11' E 003°24'1718.5
2014-Jul-25 18:31N 53°27' E 003°32'1718.2
2014-Jul-25 17:33N 53°43' E 003°41'1817.9
2014-Jul-25 16:33N 53°54' E 004°05'1717.4
2014-Jul-25 15:33N 54°08' E 004°24'1817.9
2014-Jul-25 14:33N 54°24' E 004°37'2218.2
2014-Jul-25 13:22N 54°43' E 004°55'16918.3
2014-Jul-25 04:08N 57°11' E 007°22'1118.2
2014-Jul-25 03:32N 57°18' E 007°37'6018.4
2014-Jul-25 00:17N 57°55' E 009°04'1618.5
2014-Jul-24 23:24N 58°07' E 009°26'1818.7
2014-Jul-24 22:25N 58°20' E 009°50'3618.0
2014-Jul-24 20:25N 58°50' E 010°30'1517.4
2014-Jul-24 19:34N 59°04' E 010°34'1615.7
2014-Jul-24 18:33N 59°20' E 010°35'3314.8
2014-Jul-24 16:21N 59°53' E 010°39'3 3.5
2014-Jul-24 15:30N 59°54' E 010°44'0 0.0
2014-Jul-24 14:15N 59°54' E 010°44'0 0.0
2014-Jul-24 13:33N 59°54' E 010°44'0 0.0
2014-Jul-24 12:30N 59°54' E 010°44'0 0.0
2014-Jul-24 11:30N 59°54' E 010°44'0 0.0
2014-Jul-24 10:30N 59°54' E 010°44'0 0.0
2014-Jul-24 09:21N 59°54' E 010°44'0 0.0
2014-Jul-24 08:33N 59°54' E 010°44'0 0.0
2014-Jul-24 07:09N 59°54' E 010°44'0 0.0
2014-Jul-24 06:24N 59°54' E 010°44'0 0.0
2014-Jul-24 05:12N 59°54' E 010°44'0 0.7
2014-Jul-24 04:33N 59°54' E 010°44'1211.1
2014-Jul-24 03:29N 59°43' E 010°35'1415.1
2014-Jul-24 02:33N 59°29' E 010°35'1817.8
2014-Jul-24 01:33N 59°11' E 010°39'1514.8
2014-Jul-24 00:33N 58°57' E 010°33'1716.8
2014-Jul-23 23:33N 58°40' E 010°28'1818.0
2014-Jul-23 22:33N 58°23' E 010°35'1817.7
2014-Jul-23 21:33N 58°06' E 010°48'1818.1
2014-Jul-23 20:33N 57°50' E 011°01'1818.0
2014-Jul-23 19:33N 57°35' E 011°20'1818.1
2014-Jul-23 18:33N 57°18' E 011°33'1818.0
2014-Jul-23 17:33N 57°01' E 011°45'1817.7
2014-Jul-23 16:33N 56°44' E 011°53'1818.1
2014-Jul-23 15:33N 56°28' E 011°37'1818.2
2014-Jul-23 14:33N 56°13' E 011°20'2119.0
2014-Jul-23 13:27N 55°56' E 010°58'1718.7
2014-Jul-23 12:33N 55°40' E 010°48'6415.9
2014-Jul-23 08:30N 54°36' E 011°04'1819.0
2014-Jul-23 07:34N 54°30' E 011°33'1818.0
2014-Jul-23 06:33N 54°26' E 012°04'1716.9
2014-Jul-23 05:33N 54°39' E 012°23'1918.8
2014-Jul-23 04:33N 54°49' E 012°50'1918.6
2014-Jul-23 03:33N 54°56' E 013°21'1918.7
2014-Jul-23 02:33N 55°01' E 013°51'1918.6
2014-Jul-23 01:32N 55°13' E 014°18'1919.2
2014-Jul-23 00:33N 55°28' E 014°38'1918.8
2014-Jul-22 23:33N 55°37' E 015°07'2518.8
2014-Jul-22 22:13N 55°48' E 015°47'1518.7
2014-Jul-22 21:26N 55°56' E 016°09'1618.7
2014-Jul-22 20:33N 56°05' E 016°34'1918.7
2014-Jul-22 19:34N 56°14' E 017°03'1818.1
2014-Jul-22 18:33N 56°32' E 017°13'1918.9
2014-Jul-22 17:33N 56°50' E 017°23'1918.9
2014-Jul-22 16:33N 57°08' E 017°32'1919.1
2014-Jul-22 15:33N 57°26' E 017°40'1817.8
2014-Jul-22 14:33N 57°37' E 018°06'5 5.2
2014-Jul-22 13:31N 57°38' E 018°16'0 0.0
2014-Jul-22 12:31N 57°38' E 018°16'0 0.0
2014-Jul-22 11:31N 57°38' E 018°16'0 0.0
2014-Jul-22 10:31N 57°38' E 018°16'0 0.0
2014-Jul-22 09:31N 57°38' E 018°16'0 0.0
2014-Jul-22 08:31N 57°38' E 018°16'0 0.0
2014-Jul-22 07:31N 57°38' E 018°16'0 0.0
2014-Jul-22 06:07N 57°38' E 018°16'0 0.0
2014-Jul-22 05:31N 57°38' E 018°16'6 5.8
2014-Jul-22 04:33N 57°42' E 018°09'1717.2
2014-Jul-22 03:33N 57°58' E 018°21'1717.4
2014-Jul-22 02:33N 58°14' E 018°36'1817.4
2014-Jul-22 01:32N 58°30' E 018°51'1717.5
2014-Jul-22 00:33N 58°45' E 019°06'74 2.7
2014-Jul-20 21:33N 59°25' E 021°07'1918.8
2014-Jul-20 20:33N 59°26' E 021°44'2618.2
2014-Jul-20 19:06N 59°31' E 022°35'1118.6
2014-Jul-20 18:30N 59°34' E 022°56'1818.7
2014-Jul-20 17:33N 59°37' E 023°30'2019.0
2014-Jul-20 16:30N 59°44' E 024°08'3015.1
2014-Jul-20 14:29N 60°04' E 024°53'5 5.8
2014-Jul-20 13:33N 60°09' E 024°55'0 0.0
2014-Jul-20 12:33N 60°09' E 024°55'0 0.0
2014-Jul-20 11:33N 60°09' E 024°55'0 0.0
2014-Jul-20 10:33N 60°09' E 024°55'0 0.0
2014-Jul-20 09:33N 60°09' E 024°55'0 0.0
2014-Jul-20 08:33N 60°09' E 024°55'0 0.0
2014-Jul-20 07:33N 60°09' E 024°55'0 0.0
2014-Jul-20 06:33N 60°09' E 024°55'0 0.0
2014-Jul-20 05:33N 60°09' E 024°55'0 0.0
2014-Jul-20 04:33N 60°09' E 024°55'2 1.7
2014-Jul-20 03:33N 60°07' E 024°54'1312.4
2014-Jul-20 02:32N 59°56' E 025°05'1212.3
2014-Jul-20 01:33N 59°53' E 025°28'2713.2
2014-Jul-19 23:33N 59°60' E 026°20'1313.2
2014-Jul-19 22:33N 60°01' E 026°46'10312.3
2014-Jul-19 14:11N 59°57' E 030°11'0 0.0
2014-Jul-18 02:13N 59°57' E 030°11'7613.3
2014-Jul-17 20:30N 60°09' E 027°41'1616.8
2014-Jul-17 19:33N 60°01' E 027°13'1616.5
2014-Jul-17 18:33N 59°59' E 026°40'94 6.2
2014-Jul-17 03:24N 59°29' E 023°43'  
Track history (hours):
 
Tides and Currents Weather Stations Pressure Air Temp Water Temp Dewpoint Dewpoint Depression Visibility Wind Speed Wind Dir Waves Ship Positions

Brilliance Of The Seas

Operator: Royal Caribbean Cruises Ltd

Last reported at 2014-Jul-26 22:33 UTC. Time now 2014-Jul-31 03:19 UTC.
Position N 52°57' E 002°40'.

Type: Ship. MMSI: 311361000.

Date/timePositionNaut miles runAvg speedWind from/ knotsBaromVisibWave heightAir tempDewpointWater temp
2014-Jul-26 22:33N 52°57' E 002°40'4317.2
2014-Jul-26 20:03N 52°18' E 002°08'817.1
2014-Jul-26 19:33N 52°11' E 002°02'1716.9
2014-Jul-26 18:34N 51°56' E 001°49'10 9.6
2014-Jul-26 17:33N 51°55' E 001°34'10 9.7
2014-Jul-26 16:34N 51°57' E 001°18'2 1.7
2014-Jul-26 15:31N 51°57' E 001°16'0 0.0
2014-Jul-26 14:31N 51°57' E 001°16'0 0.0
2014-Jul-26 13:31N 51°57' E 001°16'0 0.0
2014-Jul-26 12:31N 51°57' E 001°16'0 0.0
2014-Jul-26 11:31N 51°57' E 001°16'0 0.0
2014-Jul-26 10:31N 51°57' E 001°16'0 0.0
2014-Jul-26 09:28N 51°57' E 001°16'0 0.0
2014-Jul-26 08:28N 51°57' E 001°16'0 0.0
2014-Jul-26 07:31N 51°57' E 001°16'0 0.0
2014-Jul-26 06:31N 51°57' E 001°16'0 0.0
2014-Jul-26 05:31N 51°57' E 001°16'0 0.0
2014-Jul-26 04:31N 51°57' E 001°16'0 0.0
2014-Jul-26 03:34N 51°57' E 001°16'4 3.6
2014-Jul-26 02:33N 51°56' E 001°21'1212.3
2014-Jul-26 01:34N 51°52' E 001°40'1515.1
2014-Jul-26 00:34N 52°04' E 001°55'8616.8
2014-Jul-25 19:25N 53°11' E 003°24'1718.5
2014-Jul-25 18:31N 53°27' E 003°32'1718.2
2014-Jul-25 17:33N 53°43' E 003°41'1817.9
2014-Jul-25 16:33N 53°54' E 004°05'1717.4
2014-Jul-25 15:33N 54°08' E 004°24'1817.9
2014-Jul-25 14:33N 54°24' E 004°37'2218.2
2014-Jul-25 13:22N 54°43' E 004°55'16918.3
2014-Jul-25 04:08N 57°11' E 007°22'1118.2
2014-Jul-25 03:32N 57°18' E 007°37'6018.4
2014-Jul-25 00:17N 57°55' E 009°04'1618.5
2014-Jul-24 23:24N 58°07' E 009°26'1818.7
2014-Jul-24 22:25N 58°20' E 009°50'3618.0
2014-Jul-24 20:25N 58°50' E 010°30'1517.4
2014-Jul-24 19:34N 59°04' E 010°34'1615.7
2014-Jul-24 18:33N 59°20' E 010°35'3314.8
2014-Jul-24 16:21N 59°53' E 010°39'3 3.5
2014-Jul-24 15:30N 59°54' E 010°44'0 0.0
2014-Jul-24 14:15N 59°54' E 010°44'0 0.0
2014-Jul-24 13:33N 59°54' E 010°44'0 0.0
2014-Jul-24 12:30N 59°54' E 010°44'0 0.0
2014-Jul-24 11:30N 59°54' E 010°44'0 0.0
2014-Jul-24 10:30N 59°54' E 010°44'0 0.0
2014-Jul-24 09:21N 59°54' E 010°44'0 0.0
2014-Jul-24 08:33N 59°54' E 010°44'0 0.0
2014-Jul-24 07:09N 59°54' E 010°44'0 0.0
2014-Jul-24 06:24N 59°54' E 010°44'0 0.0
2014-Jul-24 05:12N 59°54' E 010°44'0 0.7
2014-Jul-24 04:33N 59°54' E 010°44'1211.1
2014-Jul-24 03:29N 59°43' E 010°35'1415.1
2014-Jul-24 02:33N 59°29' E 010°35'1817.8
2014-Jul-24 01:33N 59°11' E 010°39'1514.8
2014-Jul-24 00:33N 58°57' E 010°33'1716.8
2014-Jul-23 23:33N 58°40' E 010°28'1818.0
2014-Jul-23 22:33N 58°23' E 010°35'1817.7
2014-Jul-23 21:33N 58°06' E 010°48'1818.1
2014-Jul-23 20:33N 57°50' E 011°01'1818.0
2014-Jul-23 19:33N 57°35' E 011°20'1818.1
2014-Jul-23 18:33N 57°18' E 011°33'1818.0
2014-Jul-23 17:33N 57°01' E 011°45'1817.7
2014-Jul-23 16:33N 56°44' E 011°53'1818.1
2014-Jul-23 15:33N 56°28' E 011°37'1818.2
2014-Jul-23 14:33N 56°13' E 011°20'2119.0
2014-Jul-23 13:27N 55°56' E 010°58'1718.7
2014-Jul-23 12:33N 55°40' E 010°48'6415.9
2014-Jul-23 08:30N 54°36' E 011°04'1819.0
2014-Jul-23 07:34N 54°30' E 011°33'1818.0
2014-Jul-23 06:33N 54°26' E 012°04'1716.9
2014-Jul-23 05:33N 54°39' E 012°23'1918.8
2014-Jul-23 04:33N 54°49' E 012°50'1918.6
2014-Jul-23 03:33N 54°56' E 013°21'1918.7
2014-Jul-23 02:33N 55°01' E 013°51'1918.6
2014-Jul-23 01:32N 55°13' E 014°18'1919.2
2014-Jul-23 00:33N 55°28' E 014°38'1918.8
2014-Jul-22 23:33N 55°37' E 015°07'2518.8
2014-Jul-22 22:13N 55°48' E 015°47'1518.7
2014-Jul-22 21:26N 55°56' E 016°09'1618.7
2014-Jul-22 20:33N 56°05' E 016°34'1918.7
2014-Jul-22 19:34N 56°14' E 017°03'1818.1
2014-Jul-22 18:33N 56°32' E 017°13'1918.9
2014-Jul-22 17:33N 56°50' E 017°23'1918.9
2014-Jul-22 16:33N 57°08' E 017°32'1919.1
2014-Jul-22 15:33N 57°26' E 017°40'1817.8
2014-Jul-22 14:33N 57°37' E 018°06'5 5.2
2014-Jul-22 13:31N 57°38' E 018°16'0 0.0
2014-Jul-22 12:31N 57°38' E 018°16'0 0.0
2014-Jul-22 11:31N 57°38' E 018°16'0 0.0
2014-Jul-22 10:31N 57°38' E 018°16'0 0.0
2014-Jul-22 09:31N 57°38' E 018°16'0 0.0
2014-Jul-22 08:31N 57°38' E 018°16'0 0.0
2014-Jul-22 07:31N 57°38' E 018°16'0 0.0
2014-Jul-22 06:07N 57°38' E 018°16'0 0.0
2014-Jul-22 05:31N 57°38' E 018°16'6 5.8
2014-Jul-22 04:33N 57°42' E 018°09'1717.2
2014-Jul-22 03:33N 57°58' E 018°21'1717.4
2014-Jul-22 02:33N 58°14' E 018°36'1817.4
2014-Jul-22 01:32N 58°30' E 018°51'1717.5
2014-Jul-22 00:33N 58°45' E 019°06'74 2.7
2014-Jul-20 21:33N 59°25' E 021°07'1918.8
2014-Jul-20 20:33N 59°26' E 021°44'2618.2
2014-Jul-20 19:06N 59°31' E 022°35'1118.6
2014-Jul-20 18:30N 59°34' E 022°56'1818.7
2014-Jul-20 17:33N 59°37' E 023°30'2019.0
2014-Jul-20 16:30N 59°44' E 024°08'3015.1
2014-Jul-20 14:29N 60°04' E 024°53'5 5.8
2014-Jul-20 13:33N 60°09' E 024°55'0 0.0
2014-Jul-20 12:33N 60°09' E 024°55'0 0.0
2014-Jul-20 11:33N 60°09' E 024°55'0 0.0
2014-Jul-20 10:33N 60°09' E 024°55'0 0.0
2014-Jul-20 09:33N 60°09' E 024°55'0 0.0
2014-Jul-20 08:33N 60°09' E 024°55'0 0.0
2014-Jul-20 07:33N 60°09' E 024°55'0 0.0
2014-Jul-20 06:33N 60°09' E 024°55'0 0.0
2014-Jul-20 05:33N 60°09' E 024°55'0 0.0
2014-Jul-20 04:33N 60°09' E 024°55'2 1.7
2014-Jul-20 03:33N 60°07' E 024°54'1312.4
2014-Jul-20 02:32N 59°56' E 025°05'1212.3
2014-Jul-20 01:33N 59°53' E 025°28'2713.2
2014-Jul-19 23:33N 59°60' E 026°20'1313.2
2014-Jul-19 22:33N 60°01' E 026°46'10312.3
2014-Jul-19 14:11N 59°57' E 030°11'0 0.0
2014-Jul-18 02:13N 59°57' E 030°11'7613.3
2014-Jul-17 20:30N 60°09' E 027°41'1616.8
2014-Jul-17 19:33N 60°01' E 027°13'1616.5
2014-Jul-17 18:33N 59°59' E 026°40'94 6.2
2014-Jul-17 03:24N 59°29' E 023°43'  

Dump ship's entire track history